Latest Weather Observations for Bushy Park

IDT60901

Issued at 3:11 am EST Wednesday 31 August 2016 (issued every 10 minutes, with the page automatically refreshed every 10 minutes)

About weather observations | Map of Hobart area stations | Latest observations for Hobart area | Other Formats
Station Details ID: 095003 Name: BUSHY PARK (BUSHY PARK ESTATES) Lat: -42.71 Lon: 146.90 Height: 27.0 m
Data from the previous 72 hours. | See also: Recent months at Bushy Park
Date/Time
EST
Temp
°C
App
Temp
°C
Dew
Point
°C
Rel
Hum
%
Delta-T
°C
Wind Press
QNH
hPa
Press
MSL
hPa
Rain since
9am
mm
Dir  Spd
km/h
Gust
km/h
Spd
kts
Gust
kts
31/03:00am 7.8 6.1 7.4 97 0.2 N 6 9 3 5 - - 1.6
31/02:30am 8.0 6.3 7.6 97 0.2 N 6 9 3 5 - - 1.6
31/02:00am 8.0 7.4 7.6 97 0.2 CALM 0 6 0 3 - - 1.6
31/01:30am 8.1 7.5 7.5 96 0.3 CALM 0 0 0 0 - - 1.6
31/01:00am 8.4 7.9 8.0 97 0.2 CALM 0 0 0 0 - - 1.6
31/12:30am 8.4 7.9 8.0 97 0.2 CALM 0 0 0 0 - - 1.6
31/12:00am 8.5 8.1 8.1 97 0.2 CALM 0 0 0 0 - - 1.6
 
Date/Time
EST
Temp
°C
App
Temp
°C
Dew
Point
°C
Rel
Hum
%
Delta-T
°C
Wind Press
QNH
hPa
Press
MSL
hPa
Rain since
9am
mm
Dir  Spd
km/h
Gust
km/h
Spd
kts
Gust
kts
30/11:30pm 8.3 7.4 7.9 97 0.2 SE 2 7 1 4 - - 1.6
30/11:00pm 8.6 7.8 8.2 97 0.2 NNW 2 6 1 3 - - 1.4
30/10:30pm 8.5 8.1 8.1 97 0.2 CALM 0 0 0 0 - - 1.4
30/10:00pm 8.9 8.5 8.3 96 0.3 CALM 0 0 0 0 - - 1.4
30/09:30pm 9.0 8.6 8.4 96 0.3 CALM 0 0 0 0 - - 0.8
30/09:00pm 9.0 6.9 8.4 96 0.3 SW 9 13 5 7 - - 0.6
30/08:30pm 9.2 7.7 8.4 95 0.4 WSW 6 9 3 5 - - 0.6
30/08:00pm 9.3 7.6 8.5 95 0.4 WSW 7 11 4 6 - - 0.6
30/07:30pm 9.6 8.0 8.6 93 0.5 NW 7 11 4 6 - - 0.6
30/07:00pm 9.8 7.4 8.6 92 0.6 NW 11 13 6 7 - - 0.6
30/06:30pm 9.5 6.2 8.1 91 0.7 SSW 15 17 8 9 - - 0.6
30/06:00pm 9.7 8.9 8.1 90 0.8 WNW 2 7 1 4 - - 0.4
30/05:30pm 10.0 8.9 8.4 90 0.8 SSW 4 7 2 4 - - 0.4
30/05:00pm 10.5 9.8 8.7 89 0.9 N 2 7 1 4 - - 0.4
30/04:30pm 11.0 10.6 8.4 84 1.3 CALM 0 0 0 0 - - 0.2
30/04:00pm 11.4 10.9 7.7 78 1.8 CALM 0 0 0 0 - - 0.2
30/03:30pm 11.7 9.7 7.2 74 2.2 N 7 9 4 5 - - 0.0
30/03:00pm 12.2 11.3 6.1 66 2.9 CALM 0 0 0 0 - - 0.0
30/02:30pm 12.3 10.0 5.5 63 3.2 NE 7 11 4 6 - - 0.0
30/02:00pm 12.8 10.3 4.8 58 3.7 N 7 11 4 6 - - 0.0
30/01:30pm 12.4 9.9 4.6 59 3.6 SSW 7 9 4 5 - - 0.0
30/01:00pm 11.6 8.8 3.3 56 3.7 ENE 7 11 4 6 - - 0.0
30/12:30pm 10.6 8.2 4.2 64 2.9 SSE 6 9 3 5 - - 0.0
30/12:00pm 9.2 7.1 4.0 70 2.3 NE 4 9 2 5 - - 0.0
30/11:30am 8.6 6.2 4.1 73 2.0 NNE 6 9 3 5 - - 0.0
30/11:00am 8.0 5.3 3.6 74 1.9 N 7 9 4 5 - - 0.0
30/10:30am 7.6 4.8 3.4 75 1.8 N 7 11 4 6 - - 0.0
30/10:00am 6.8 4.1 3.5 79 1.4 N 7 9 4 5 - - 0.0
30/09:30am 4.7 2.4 3.0 89 0.7 NNE 4 7 2 4 - - 0.0
30/09:00am 3.1 1.5 2.4 95 0.3 CALM 0 0 0 0 - - 0.0
30/08:30am 2.0 0.2 1.2 94 0.3 CALM 0 0 0 0 - - 0.0
30/08:00am 1.4 -0.5 0.6 94 0.3 CALM 0 0 0 0 - - 0.0
30/07:30am -0.3 - - - - CALM 0 0 0 0 - - 0.0
30/07:00am -0.7 - - - - N 6 9 3 5 - - 0.0
30/06:30am -0.5 - - - - CALM 0 0 0 0 - - 0.0
30/06:00am -0.9 - - - - NNW 6 7 3 4 - - 0.0
30/05:30am -0.6 - - - - CALM 0 0 0 0 - - 0.0
30/05:00am -0.7 - - - - N 6 9 3 5 - - 0.0
30/04:30am -0.2 - - - - N 7 9 4 5 - - 0.0
30/04:00am -0.5 - - - - W 6 7 3 4 - - 0.0
30/03:30am -0.1 - - - - W 4 7 2 4 - - 0.0
30/03:00am -0.2 - - - - N 6 9 3 5 - - 0.0
30/02:30am 0.1 - - - - N 2 9 1 5 - - 0.0
30/02:00am 0.6 -2.1 0.1 96 0.2 SSW 4 7 2 4 - - 0.0
30/01:30am 0.4 - - - - SW 6 9 3 5 - - 0.0
30/01:00am 0.7 -2.0 0.2 96 0.2 N 4 7 2 4 - - 0.0
30/12:30am 1.1 -1.6 0.6 96 0.2 W 4 9 2 5 - - 0.0
30/12:00am 1.5 -0.8 0.7 94 0.3 SE 2 4 1 2 - - 0.0
 
Date/Time
EST
Temp
°C
App
Temp
°C
Dew
Point
°C
Rel
Hum
%
Delta-T
°C
Wind Press
QNH
hPa
Press
MSL
hPa
Rain since
9am
mm
Dir  Spd
km/h
Gust
km/h
Spd
kts
Gust
kts
29/11:30pm 2.1 -0.4 1.3 94 0.3 SW 4 7 2 4 - - 0.0
29/11:00pm 2.2 -0.3 1.4 94 0.3 WNW 4 7 2 4 - - 0.0
29/10:30pm 2.6 -1.2 1.6 93 0.4 WSW 11 11 6 6 - - 0.0
29/10:00pm 3.0 -0.8 2.0 93 0.4 SW 11 13 6 7 - - 0.0
29/09:30pm 3.7 0.4 2.7 93 0.4 SW 9 11 5 6 - - 0.0
29/09:00pm 4.0 0.8 2.8 92 0.5 WSW 9 11 5 6 - - 0.0
29/08:30pm 4.9 1.8 3.5 91 0.6 WSW 9 13 5 7 - - 0.0
29/08:00pm 5.8 2.7 3.4 84 1.0 SSW 9 11 5 6 - - 0.0
29/07:30pm 6.7 3.3 3.9 82 1.2 SSW 11 13 6 7 - - 0.0
29/07:00pm 7.2 4.3 4.5 83 1.2 SSE 9 11 5 6 - - 0.0
29/06:30pm 8.0 5.1 4.6 79 1.5 SSE 9 15 5 8 - - 0.0
29/06:00pm 8.9 6.0 4.9 76 1.8 S 9 11 5 6 - - 0.0
29/05:30pm 9.9 7.1 5.1 72 2.2 SSW 9 11 5 6 - - 0.0
29/05:00pm 12.0 9.5 4.9 62 3.3 SE 7 11 4 6 - - 0.0
29/04:30pm 13.2 10.1 3.8 53 4.2 SE 9 11 5 6 - - 0.0
29/04:00pm 13.6 11.0 4.0 52 4.4 SE 7 9 4 5 - - 0.0
29/03:30pm 13.4 10.6 2.9 49 4.7 SSE 7 9 4 5 - - 0.0
29/03:00pm 13.1 10.1 3.9 53 4.2 ESE 9 11 5 6 - - 0.0
29/02:30pm 12.5 9.4 3.4 54 4.0 SSE 9 11 5 6 - - 0.0
29/02:00pm 12.3 9.4 2.5 51 4.3 SSE 7 13 4 7 - - 0.0
29/01:30pm 12.1 9.5 3.1 54 4.0 SSW 6 7 3 4 - - 0.0
29/01:00pm 11.5 8.2 2.3 53 4.0 NNE 9 11 5 6 - - 0.0
29/12:30pm 11.1 8.4 2.6 56 3.7 W 6 7 3 4 - - 0.0
29/12:00pm 10.6 7.3 2.5 57 3.5 N 9 13 5 7 - - 0.0
29/11:30am 10.1 7.3 2.1 57 3.4 N 6 9 3 5 - - 0.0
29/11:00am 8.6 5.6 2.2 64 2.7 ESE 7 9 4 5 - - 0.0
29/10:30am 7.3 4.4 1.7 67 2.3 E 6 7 3 4 - - 0.0
29/10:00am 6.0 3.7 0.7 69 2.1 ENE 2 9 1 5 - - 0.0
29/09:30am 4.9 1.9 1.1 76 1.5 ENE 6 7 3 4 - - 0.0
29/09:00am 4.8 2.5 0.1 71 1.8 E 2 4 1 2 - - 0.0
29/08:30am 2.3 -0.1 -0.1 84 0.9 N 2 9 1 5 - - 0.0
29/08:00am 0.5 -1.4 0.5 100 0.0 CALM 0 0 0 0 - - 0.0
29/07:30am -1.1 - - - - CALM 0 7 0 4 - - 0.0
29/07:00am -1.9 - - - - W 2 7 1 4 - - 0.0
29/06:30am -1.8 - - - - N 4 7 2 4 - - 0.0
29/06:00am -1.5 - - - - SSW 2 7 1 4 - - 0.0
29/05:30am -1.6 - - - - SSW 2 7 1 4 - - 0.0
29/05:00am -1.2 - - - - NNW 7 11 4 6 - - 0.0
29/04:30am -1.1 - - - - CALM 0 0 0 0 - - 0.0
29/04:00am -0.7 - - - - ENE 6 7 3 4 - - 0.0
29/03:30am -0.8 - - - - N 6 7 3 4 - - 0.0
29/03:00am -0.3 - - - - ENE 6 9 3 5 - - 0.0
29/02:30am 0.2 - - - - NNE 2 6 1 3 - - 0.0
29/02:00am 0.7 -2.6 -0.1 94 0.3 N 7 11 4 6 - - 0.0
29/01:30am 0.7 - - - - S 7 7 4 4 - - 0.0
29/01:00am 0.9 -2.4 -0.2 92 0.4 NE 7 9 4 5 - - 0.0
29/12:30am 2.0 -1.7 0.1 87 0.7 S 9 11 5 6 - - 0.0
29/12:00am 1.7 -2.4 0.1 89 0.6 N 11 22 6 12 - - 0.0
 
Date/Time
EST
Temp
°C
App
Temp
°C
Dew
Point
°C
Rel
Hum
%
Delta-T
°C
Wind Press
QNH
hPa
Press
MSL
hPa
Rain since
9am
mm
Dir  Spd
km/h
Gust
km/h
Spd
kts
Gust
kts
28/11:30pm 1.9 -1.4 0.0 87 0.7 SSW 7 9 4 5 - - 0.0
28/11:00pm 3.1 -0.9 0.2 81 1.1 NNE 11 13 6 7 - - 0.0
28/10:30pm 2.8 -0.3 0.4 84 0.9 E 6 9 3 5 - - 0.0
28/10:00pm 3.2 -0.1 0.3 81 1.1 NW 7 11 4 6 - - 0.0
28/09:30pm 3.9 -0.1 0.8 80 1.2 SW 11 15 6 8 - - 0.0
28/09:00pm 4.6 1.4 0.5 75 1.6 S 7 9 4 5 - - 0.0
28/08:30pm 5.1 1.9 0.5 72 1.8 SSW 7 17 4 9 - - 0.0
28/08:00pm 7.4 2.9 -0.2 58 3.0 W 13 24 7 13 - - 0.0
28/07:30pm 8.2 2.8 -1.4 51 3.7 W 17 28 9 15 - - 0.0
28/07:00pm 8.3 3.6 -1.6 49 3.8 WNW 13 20 7 11 - - 0.0
28/06:30pm 8.2 3.3 -0.7 53 3.5 W 15 22 8 12 - - 0.0
28/06:00pm 8.6 3.2 -1.2 50 3.8 W 17 24 9 13 - - 0.0
28/05:30pm 8.8 3.6 -0.2 53 3.6 WSW 17 28 9 15 - - 0.0
28/05:00pm 9.6 4.7 -0.7 48 4.1 NW 15 22 8 12 - - 0.0
28/04:30pm 10.7 5.0 -0.7 45 4.5 WNW 19 28 10 15 - - 0.0
28/04:00pm 10.3 4.5 -0.3 48 4.2 NW 20 35 11 19 - - 0.0
28/03:30pm 11.3 6.5 0.5 47 4.5 W 15 26 8 14 - - 0.0
28/03:00pm 11.9 6.4 0.7 46 4.7 WNW 19 28 10 15 - - 0.0
28/02:30pm 10.4 7.1 0.1 49 4.2 WSW 7 17 4 9 - - 0.0
28/02:00pm 10.6 5.9 1.1 52 3.9 W 15 24 8 13 - - 0.0
28/01:30pm 11.4 6.9 -0.3 44 4.7 W 13 26 7 14 - - 0.0
28/01:00pm 10.1 5.9 -1.0 46 4.4 WNW 11 20 6 11 - - 0.0
28/12:30pm 9.4 6.3 0.0 52 3.8 NNE 6 11 3 6 - - 0.0
28/12:00pm 9.2 5.0 -0.6 50 3.9 N 11 13 6 7 - - 0.0
28/11:30am 9.2 5.1 0.0 52 3.7 NNE 11 13 6 7 - - 0.0
28/11:00am 8.5 5.5 0.9 59 3.1 NNW 6 13 3 7 - - 0.0
28/10:30am 8.4 5.1 0.2 56 3.3 NNE 7 11 4 6 - - 0.0
28/10:00am 8.0 4.4 0.6 59 3.0 N 9 13 5 7 - - 0.0
28/09:30am 8.9 5.5 1.7 60 3.0 SW 9 13 5 7 - - 0.0
28/09:00am 7.4 4.5 2.4 70 2.1 W 7 11 4 6 - - 3.6
28/08:30am 5.8 3.1 2.9 82 1.2 NW 6 9 3 5 - - 3.6
28/08:00am 5.1 2.1 2.2 81 1.2 NE 7 9 4 5 - - 3.6
28/07:30am 4.2 2.2 2.5 89 0.7 NNW 2 7 1 4 - - 3.6
28/07:00am 4.2 0.4 2.0 85 0.9 W 11 17 6 9 - - 3.6
28/06:30am 3.2 -0.6 1.7 90 0.6 NW 11 15 6 8 - - 3.6
28/06:00am 4.2 0.8 2.0 85 0.9 N 9 11 5 6 - - 3.6
28/05:30am 4.8 1.4 1.8 81 1.2 NW 9 13 5 7 - - 3.6
28/05:00am 6.0 1.7 1.3 72 1.9 WSW 13 30 7 16 - - 3.6
28/04:30am 5.5 1.4 2.1 79 1.4 W 13 19 7 10 - - 3.6
28/04:00am 5.9 1.1 2.5 79 1.4 SW 17 28 9 15 - - 3.6
28/03:30am 6.0 1.6 2.6 79 1.4 W 15 26 8 14 - - 3.4

Latest Capital City Observations: Canberra | Sydney | Melbourne | Brisbane | Adelaide | Perth | Hobart | Darwin

Other Formats:

Comma delimited format used in spreadsheet applications
http://www.bom.gov.au/fwo/IDT60901/IDT60901.94964.axf

JavaScript Object Notation format (JSON) in row-major order
http://www.bom.gov.au/fwo/IDT60901/IDT60901.94964.json